sensor_id;sensor_type;location;lat;lon;timestamp;pressure;altitude;pressure_sealevel;temperature;humidity
30618;BME280;17384;51.214;9.202;2022-12-07T00:01:41;98603.78;;;0.71;87.00
30618;BME280;17384;51.214;9.202;2022-12-07T00:04:10;98609.28;;;0.69;88.05
30618;BME280;17384;51.214;9.202;2022-12-07T00:06:38;98602.69;;;0.81;88.15
30618;BME280;17384;51.214;9.202;2022-12-07T00:09:05;98597.63;;;0.70;88.37
30618;BME280;17384;51.214;9.202;2022-12-07T00:11:32;98601.91;;;0.63;88.51
30618;BME280;17384;51.214;9.202;2022-12-07T00:13:59;98587.41;;;0.65;88.94
30618;BME280;17384;51.214;9.202;2022-12-07T00:16:28;98591.13;;;0.73;88.95
30618;BME280;17384;51.214;9.202;2022-12-07T00:18:54;98580.44;;;0.73;88.83
30618;BME280;17384;51.214;9.202;2022-12-07T00:21:32;98585.38;;;0.93;89.01
30618;BME280;17384;51.214;9.202;2022-12-07T00:23:59;98575.66;;;0.84;88.78
30618;BME280;17384;51.214;9.202;2022-12-07T00:26:29;98573.75;;;1.11;88.46
30618;BME280;17384;51.214;9.202;2022-12-07T00:28:58;98573.75;;;1.11;87.97
30618;BME280;17384;51.214;9.202;2022-12-07T00:31:26;98579.72;;;0.96;88.41
30618;BME280;17384;51.214;9.202;2022-12-07T00:33:52;98573.44;;;1.06;88.43
30618;BME280;17384;51.214;9.202;2022-12-07T00:36:20;98571.03;;;0.94;88.47
30618;BME280;17384;51.214;9.202;2022-12-07T00:38:46;98578.78;;;1.06;88.83
30618;BME280;17384;51.214;9.202;2022-12-07T00:41:14;98576.81;;;1.24;87.75
30618;BME280;17384;51.214;9.202;2022-12-07T00:43:41;98567.16;;;1.31;87.24
30618;BME280;17384;51.214;9.202;2022-12-07T00:46:06;98559.47;;;1.28;87.62
30618;BME280;17384;51.214;9.202;2022-12-07T00:48:32;98570.47;;;1.25;87.79
30618;BME280;17384;51.214;9.202;2022-12-07T00:50:58;98553.66;;;1.32;87.11
30618;BME280;17384;51.214;9.202;2022-12-07T00:53:24;98550.28;;;1.30;87.50
30618;BME280;17384;51.214;9.202;2022-12-07T00:55:50;98545.47;;;1.34;87.54
30618;BME280;17384;51.214;9.202;2022-12-07T00:58:15;98548.72;;;1.12;87.63
30618;BME280;17384;51.214;9.202;2022-12-07T01:00:42;98544.19;;;1.04;88.15
30618;BME280;17384;51.214;9.202;2022-12-07T01:03:10;98557.88;;;1.01;88.57
30618;BME280;17384;51.214;9.202;2022-12-07T01:05:36;98547.03;;;1.02;88.92
30618;BME280;17384;51.214;9.202;2022-12-07T01:08:01;98548.72;;;1.04;89.08
30618;BME280;17384;51.214;9.202;2022-12-07T01:10:27;98542.38;;;1.05;88.97
30618;BME280;17384;51.214;9.202;2022-12-07T01:12:53;98545.88;;;1.05;89.32
30618;BME280;17384;51.214;9.202;2022-12-07T01:15:19;98548.22;;;1.08;89.32
30618;BME280;17384;51.214;9.202;2022-12-07T01:17:44;98531.84;;;1.11;89.18
30618;BME280;17384;51.214;9.202;2022-12-07T01:20:10;98525.19;;;1.15;89.04
30618;BME280;17384;51.214;9.202;2022-12-07T01:22:40;98533.72;;;1.19;89.39
30618;BME280;17384;51.214;9.202;2022-12-07T01:25:07;98534.06;;;1.24;88.93
30618;BME280;17384;51.214;9.202;2022-12-07T01:27:34;98535.09;;;1.31;88.92
30618;BME280;17384;51.214;9.202;2022-12-07T01:30:01;98537.44;;;1.34;89.05
30618;BME280;17384;51.214;9.202;2022-12-07T01:32:27;98539.28;;;1.33;88.91
30618;BME280;17384;51.214;9.202;2022-12-07T01:34:53;98542.47;;;1.45;88.71
30618;BME280;17384;51.214;9.202;2022-12-07T01:37:19;98535.13;;;1.55;88.23
30618;BME280;17384;51.214;9.202;2022-12-07T01:39:48;98540.97;;;1.51;88.42
30618;BME280;17384;51.214;9.202;2022-12-07T01:42:14;98545.47;;;1.50;88.81
30618;BME280;17384;51.214;9.202;2022-12-07T01:47:44;98540.00;;;1.60;88.28
30618;BME280;17384;51.214;9.202;2022-12-07T01:50:11;98545.16;;;1.69;87.95
30618;BME280;17384;51.214;9.202;2022-12-07T01:52:38;98539.81;;;1.69;87.72
30618;BME280;17384;51.214;9.202;2022-12-07T01:55:10;98536.66;;;1.82;87.43
30618;BME280;17384;51.214;9.202;2022-12-07T01:57:40;98540.53;;;1.88;87.50
30618;BME280;17384;51.214;9.202;2022-12-07T02:00:08;98546.88;;;1.87;87.42
30618;BME280;17384;51.214;9.202;2022-12-07T02:02:37;98550.22;;;1.89;87.78
30618;BME280;17384;51.214;9.202;2022-12-07T02:05:05;98535.50;;;1.85;88.07
30618;BME280;17384;51.214;9.202;2022-12-07T02:07:31;98537.34;;;1.84;88.00
30618;BME280;17384;51.214;9.202;2022-12-07T02:10:19;98534.84;;;1.91;88.22
30618;BME280;17384;51.214;9.202;2022-12-07T02:12:48;98531.97;;;1.92;87.87
30618;BME280;17384;51.214;9.202;2022-12-07T02:15:16;98528.47;;;1.84;88.24
30618;BME280;17384;51.214;9.202;2022-12-07T02:26:35;98532.31;;;1.81;88.75
30618;BME280;17384;51.214;9.202;2022-12-07T02:29:11;98526.16;;;1.89;88.73
30618;BME280;17384;51.214;9.202;2022-12-07T02:37:20;98513.78;;;1.88;88.90
30618;BME280;17384;51.214;9.202;2022-12-07T02:40:12;98523.47;;;1.89;88.63
30618;BME280;17384;51.214;9.202;2022-12-07T02:42:46;98502.56;;;1.84;89.17
30618;BME280;17384;51.214;9.202;2022-12-07T02:45:14;98519.28;;;1.86;89.29
30618;BME280;17384;51.214;9.202;2022-12-07T02:47:41;98520.78;;;1.89;89.27
30618;BME280;17384;51.214;9.202;2022-12-07T02:50:09;98521.78;;;1.88;89.13
30618;BME280;17384;51.214;9.202;2022-12-07T02:52:35;98515.44;;;1.89;89.16
30618;BME280;17384;51.214;9.202;2022-12-07T02:55:00;98516.13;;;1.91;89.12
30618;BME280;17384;51.214;9.202;2022-12-07T02:57:49;98503.88;;;1.96;88.85
30618;BME280;17384;51.214;9.202;2022-12-07T03:00:20;98513.41;;;1.99;88.54
30618;BME280;17384;51.214;9.202;2022-12-07T03:03:00;98512.75;;;1.97;88.62
30618;BME280;17384;51.214;9.202;2022-12-07T03:11:02;98510.22;;;1.95;89.03
30618;BME280;17384;51.214;9.202;2022-12-07T03:14:33;98514.06;;;1.93;89.07
30618;BME280;17384;51.214;9.202;2022-12-07T03:16:33;98517.25;;;1.96;89.15
30618;BME280;17384;51.214;9.202;2022-12-07T03:19:15;98503.56;;;1.99;89.05
30618;BME280;17384;51.214;9.202;2022-12-07T03:21:44;98512.75;;;2.05;88.94
30618;BME280;17384;51.214;9.202;2022-12-07T03:24:19;98501.38;;;2.03;89.31
30618;BME280;17384;51.214;9.202;2022-12-07T03:26:47;98504.38;;;2.00;89.40
30618;BME280;17384;51.214;9.202;2022-12-07T03:29:21;98497.53;;;1.97;89.55
30618;BME280;17384;51.214;9.202;2022-12-07T03:31:58;98504.56;;;1.98;89.65
30618;BME280;17384;51.214;9.202;2022-12-07T03:34:34;98496.34;;;2.00;89.44
30618;BME280;17384;51.214;9.202;2022-12-07T03:37:12;98504.56;;;1.98;89.09
30618;BME280;17384;51.214;9.202;2022-12-07T03:39:59;98513.75;;;2.04;89.30
30618;BME280;17384;51.214;9.202;2022-12-07T03:42:26;98508.72;;;2.01;89.07
30618;BME280;17384;51.214;9.202;2022-12-07T03:44:52;98504.72;;;2.05;88.72
30618;BME280;17384;51.214;9.202;2022-12-07T03:49:53;98510.56;;;1.92;88.81
30618;BME280;17384;51.214;9.202;2022-12-07T03:54:53;98513.75;;;2.04;88.49
30618;BME280;17384;51.214;9.202;2022-12-07T03:57:23;98506.06;;;2.01;88.47
30618;BME280;17384;51.214;9.202;2022-12-07T03:59:50;98508.72;;;2.01;88.49
30618;BME280;17384;51.214;9.202;2022-12-07T04:02:17;98512.41;;;2.00;88.68
30618;BME280;17384;51.214;9.202;2022-12-07T04:04:43;98505.38;;;1.99;88.66
30618;BME280;17384;51.214;9.202;2022-12-07T04:07:08;98497.88;;;2.02;88.78
30618;BME280;17384;51.214;9.202;2022-12-07T04:09:34;98509.06;;;1.98;88.63
30618;BME280;17384;51.214;9.202;2022-12-07T04:12:00;98498.69;;;2.03;88.72
30618;BME280;17384;51.214;9.202;2022-12-07T04:14:25;98498.69;;;2.03;88.64
30618;BME280;17384;51.214;9.202;2022-12-07T04:16:53;98508.41;;;2.04;88.57
30618;BME280;17384;51.214;9.202;2022-12-07T04:19:20;98509.56;;;2.10;88.29
30618;BME280;17384;51.214;9.202;2022-12-07T04:21:47;98502.88;;;2.06;88.51
30618;BME280;17384;51.214;9.202;2022-12-07T04:24:14;98496.88;;;2.03;88.64
30618;BME280;17384;51.214;9.202;2022-12-07T04:26:41;98494.34;;;2.02;88.71
30618;BME280;17384;51.214;9.202;2022-12-07T04:29:06;98489.63;;;2.20;87.78
30618;BME280;17384;51.214;9.202;2022-12-07T04:31:32;98509.41;;;2.11;87.89
30618;BME280;17384;51.214;9.202;2022-12-07T04:33:57;98506.22;;;1.99;87.81
30618;BME280;17384;51.214;9.202;2022-12-07T04:36:23;98503.38;;;2.01;88.02
30618;BME280;17384;51.214;9.202;2022-12-07T04:38:48;98499.03;;;2.00;87.89
30618;BME280;17384;51.214;9.202;2022-12-07T04:41:14;98500.06;;;1.91;88.16
30618;BME280;17384;51.214;9.202;2022-12-07T04:43:39;98507.41;;;1.89;87.99
30618;BME280;17384;51.214;9.202;2022-12-07T04:46:05;98504.56;;;1.90;87.85
30618;BME280;17384;51.214;9.202;2022-12-07T04:48:30;98509.56;;;1.93;88.07
30618;BME280;17384;51.214;9.202;2022-12-07T04:50:56;98496.34;;;1.92;87.47
30618;BME280;17384;51.214;9.202;2022-12-07T04:53:22;98509.22;;;1.96;87.47
30618;BME280;17384;51.214;9.202;2022-12-07T04:55:47;98496.19;;;1.93;87.87
30618;BME280;17384;51.214;9.202;2022-12-07T04:58:13;98513.41;;;1.99;87.45
30618;BME280;17384;51.214;9.202;2022-12-07T05:00:39;98509.41;;;2.03;87.40
30618;BME280;17384;51.214;9.202;2022-12-07T05:03:05;98505.38;;;2.07;87.41
30618;BME280;17384;51.214;9.202;2022-12-07T05:05:30;98503.56;;;2.16;86.89
30618;BME280;17384;51.214;9.202;2022-12-07T05:07:56;98512.41;;;2.16;87.10
30618;BME280;17384;51.214;9.202;2022-12-07T05:10:21;98507.06;;;2.08;87.03
30618;BME280;17384;51.214;9.202;2022-12-07T05:12:47;98509.56;;;2.10;87.63
30618;BME280;17384;51.214;9.202;2022-12-07T05:15:13;98503.88;;;2.13;87.44
30618;BME280;17384;51.214;9.202;2022-12-07T05:17:39;98509.56;;;2.10;86.96
30618;BME280;17384;51.214;9.202;2022-12-07T05:20:04;98510.41;;;2.02;87.03
30618;BME280;17384;51.214;9.202;2022-12-07T05:22:30;98515.09;;;2.00;87.04
30618;BME280;17384;51.214;9.202;2022-12-07T05:24:56;98501.38;;;1.95;87.20
30618;BME280;17384;51.214;9.202;2022-12-07T05:27:22;98510.06;;;1.97;87.26
30618;BME280;17384;51.214;9.202;2022-12-07T05:29:47;98509.72;;;2.00;87.29
30618;BME280;17384;51.214;9.202;2022-12-07T05:32:14;98501.72;;;2.08;87.03
30618;BME280;17384;51.214;9.202;2022-12-07T05:34:39;98502.03;;;2.05;87.09
30618;BME280;17384;51.214;9.202;2022-12-07T05:37:05;98499.38;;;2.05;87.03
30618;BME280;17384;51.214;9.202;2022-12-07T05:39:30;98488.50;;;2.07;87.02
30618;BME280;17384;51.214;9.202;2022-12-07T05:41:56;98494.53;;;2.00;86.83
30618;BME280;17384;51.214;9.202;2022-12-07T05:44:37;98494.03;;;1.97;87.00
30618;BME280;17384;51.214;9.202;2022-12-07T05:47:03;98497.38;;;2.15;85.60
30618;BME280;17384;51.214;9.202;2022-12-07T05:49:28;98497.69;;;2.04;86.38
30618;BME280;17384;51.214;9.202;2022-12-07T05:51:54;98493.69;;;2.00;86.22
30618;BME280;17384;51.214;9.202;2022-12-07T05:54:19;98499.41;;;1.89;86.40
30618;BME280;17384;51.214;9.202;2022-12-07T05:56:45;98484.31;;;2.04;87.80
30618;BME280;17384;51.214;9.202;2022-12-07T05:59:11;98492.00;;;2.15;87.88
30618;BME280;17384;51.214;9.202;2022-12-07T06:01:58;98480.19;;;2.49;88.66
30618;BME280;17384;51.214;9.202;2022-12-07T06:04:26;98489.53;;;2.61;88.41
30618;BME280;17384;51.214;9.202;2022-12-07T06:06:52;98485.94;;;2.77;88.46
30618;BME280;17384;51.214;9.202;2022-12-07T06:09:19;98501.78;;;2.94;88.10
30618;BME280;17384;51.214;9.202;2022-12-07T06:11:45;98497.28;;;2.95;87.10
30618;BME280;17384;51.214;9.202;2022-12-07T06:14:29;98498.28;;;2.94;85.77
30618;BME280;17384;51.214;9.202;2022-12-07T06:16:55;98485.56;;;2.88;86.03
30618;BME280;17384;51.214;9.202;2022-12-07T06:19:20;98493.59;;;2.96;86.55
30618;BME280;17384;51.214;9.202;2022-12-07T06:21:46;98490.94;;;3.19;86.95
30618;BME280;17384;51.214;9.202;2022-12-07T06:24:13;98493.50;;;3.12;85.56
30618;BME280;17384;51.214;9.202;2022-12-07T06:26:39;98485.19;;;2.99;84.34
30618;BME280;17384;51.214;9.202;2022-12-07T06:29:05;98487.81;;;3.07;84.76
30618;BME280;17384;51.214;9.202;2022-12-07T06:31:30;98481.28;;;3.10;84.35
30618;BME280;17384;51.214;9.202;2022-12-07T06:33:58;98480.84;;;2.98;83.37
30618;BME280;17384;51.214;9.202;2022-12-07T06:36:23;98485.72;;;2.94;81.96
30618;BME280;17384;51.214;9.202;2022-12-07T06:38:49;98479.63;;;2.69;82.50
30618;BME280;17384;51.214;9.202;2022-12-07T06:41:14;98485.78;;;2.31;83.23
30618;BME280;17384;51.214;9.202;2022-12-07T06:43:40;98498.31;;;2.22;84.11
30618;BME280;17384;51.214;9.202;2022-12-07T06:46:06;98506.72;;;2.11;84.16
30618;BME280;17384;51.214;9.202;2022-12-07T06:48:31;98493.31;;;2.27;84.10
30618;BME280;17384;51.214;9.202;2022-12-07T06:50:56;98496.97;;;2.34;83.53
30618;BME280;17384;51.214;9.202;2022-12-07T06:53:22;98496.03;;;2.11;83.88
30618;BME280;17384;51.214;9.202;2022-12-07T06:55:48;98491.19;;;1.98;84.41
30618;BME280;17384;51.214;9.202;2022-12-07T06:58:13;98491.50;;;2.12;84.52
30618;BME280;17384;51.214;9.202;2022-12-07T07:00:38;98508.56;;;1.94;84.75
30618;BME280;17384;51.214;9.202;2022-12-07T07:03:04;98509.72;;;1.67;85.32
30618;BME280;17384;51.214;9.202;2022-12-07T07:05:30;98514.59;;;1.64;85.44
30618;BME280;17384;51.214;9.202;2022-12-07T07:07:55;98522.13;;;1.60;85.74
30618;BME280;17384;51.214;9.202;2022-12-07T07:10:21;98513.72;;;1.47;86.07
30618;BME280;17384;51.214;9.202;2022-12-07T07:12:46;98517.25;;;1.48;86.14
30618;BME280;17384;51.214;9.202;2022-12-07T07:15:11;98514.09;;;1.52;86.47
30618;BME280;17384;51.214;9.202;2022-12-07T07:17:37;98518.25;;;1.47;85.98
30618;BME280;17384;51.214;9.202;2022-12-07T07:20:03;98519.41;;;1.44;86.32
30618;BME280;17384;51.214;9.202;2022-12-07T07:22:29;98516.75;;;1.52;86.00
30618;BME280;17384;51.214;9.202;2022-12-07T07:24:54;98509.72;;;1.43;85.96
30618;BME280;17384;51.214;9.202;2022-12-07T07:27:20;98508.72;;;1.44;86.13
30618;BME280;17384;51.214;9.202;2022-12-07T07:29:45;98507.38;;;1.40;86.28
30618;BME280;17384;51.214;9.202;2022-12-07T07:32:10;98519.56;;;1.34;86.19
30618;BME280;17384;51.214;9.202;2022-12-07T07:34:37;98515.22;;;1.42;86.73
30618;BME280;17384;51.214;9.202;2022-12-07T07:37:03;98529.09;;;1.45;86.60
30618;BME280;17384;51.214;9.202;2022-12-07T07:39:28;98530.78;;;1.54;86.39
30618;BME280;17384;51.214;9.202;2022-12-07T07:41:54;98523.44;;;1.64;86.27
30618;BME280;17384;51.214;9.202;2022-12-07T07:44:20;98532.13;;;1.75;85.89
30618;BME280;17384;51.214;9.202;2022-12-07T07:46:46;98537.50;;;1.75;85.91
30618;BME280;17384;51.214;9.202;2022-12-07T07:49:11;98541.50;;;1.70;86.30
30618;BME280;17384;51.214;9.202;2022-12-07T07:51:37;98528.28;;;1.69;86.34
30618;BME280;17384;51.214;9.202;2022-12-07T07:54:03;98525.47;;;1.87;86.12
30618;BME280;17384;51.214;9.202;2022-12-07T07:56:28;98524.78;;;1.77;86.45
30618;BME280;17384;51.214;9.202;2022-12-07T07:58:54;98525.97;;;1.74;85.95
30618;BME280;17384;51.214;9.202;2022-12-07T08:01:19;98522.78;;;1.70;86.18
30618;BME280;17384;51.214;9.202;2022-12-07T08:03:48;98527.13;;;1.72;86.28
30618;BME280;17384;51.214;9.202;2022-12-07T08:06:15;98524.94;;;1.67;86.29
30618;BME280;17384;51.214;9.202;2022-12-07T08:08:40;98525.28;;;1.72;86.24
30618;BME280;17384;51.214;9.202;2022-12-07T08:11:08;98527.13;;;1.80;86.36
30618;BME280;17384;51.214;9.202;2022-12-07T08:13:33;98522.13;;;1.77;86.27
30618;BME280;17384;51.214;9.202;2022-12-07T08:16:03;98524.13;;;1.91;86.12
30618;BME280;17384;51.214;9.202;2022-12-07T08:18:29;98526.13;;;1.97;85.53
30618;BME280;17384;51.214;9.202;2022-12-07T08:21:00;98522.28;;;2.08;84.82
30618;BME280;17384;51.214;9.202;2022-12-07T08:23:26;98515.25;;;1.98;85.41
30618;BME280;17384;51.214;9.202;2022-12-07T08:25:52;98527.47;;;2.01;85.77
30618;BME280;17384;51.214;9.202;2022-12-07T08:28:17;98531.81;;;1.94;85.19
30618;BME280;17384;51.214;9.202;2022-12-07T08:30:43;98535.84;;;1.90;85.64
30618;BME280;17384;51.214;9.202;2022-12-07T08:33:09;98531.13;;;2.00;85.81
30618;BME280;17384;51.214;9.202;2022-12-07T08:35:41;98525.63;;;1.93;86.46
30618;BME280;17384;51.214;9.202;2022-12-07T08:38:07;98527.97;;;2.04;85.61
30618;BME280;17384;51.214;9.202;2022-12-07T08:40:33;98542.69;;;2.17;84.75
30618;BME280;17384;51.214;9.202;2022-12-07T08:42:58;98532.47;;;2.12;84.96
30618;BME280;17384;51.214;9.202;2022-12-07T08:45:24;98536.78;;;2.29;84.13
30618;BME280;17384;51.214;9.202;2022-12-07T08:48:02;98530.63;;;3.23;82.97
30618;BME280;17384;51.214;9.202;2022-12-07T08:50:29;98536.28;;;4.05;80.88
30618;BME280;17384;51.214;9.202;2022-12-07T08:52:58;98538.13;;;4.04;80.16
30618;BME280;17384;51.214;9.202;2022-12-07T08:55:24;98530.34;;;4.47;76.44
30618;BME280;17384;51.214;9.202;2022-12-07T08:57:50;98533.13;;;4.16;77.86
30618;BME280;17384;51.214;9.202;2022-12-07T09:00:16;98536.63;;;4.02;77.30
30618;BME280;17384;51.214;9.202;2022-12-07T09:02:43;98551.00;;;3.86;76.87
30618;BME280;17384;51.214;9.202;2022-12-07T09:05:09;98539.84;;;3.97;78.14
30618;BME280;17384;51.214;9.202;2022-12-07T09:07:35;98527.97;;;3.92;77.96
30618;BME280;17384;51.214;9.202;2022-12-07T09:10:01;98543.06;;;3.93;78.87
30618;BME280;17384;51.214;9.202;2022-12-07T09:12:26;98544.22;;;3.98;77.41
30618;BME280;17384;51.214;9.202;2022-12-07T09:14:52;98549.41;;;3.54;79.30
30618;BME280;17384;51.214;9.202;2022-12-07T09:17:17;98541.38;;;3.46;79.64
30618;BME280;17384;51.214;9.202;2022-12-07T09:19:43;98538.50;;;3.25;79.73
30618;BME280;17384;51.214;9.202;2022-12-07T09:22:09;98546.06;;;3.21;79.38
30618;BME280;17384;51.214;9.202;2022-12-07T09:24:34;98552.91;;;3.24;79.69
30618;BME280;17384;51.214;9.202;2022-12-07T09:27:00;98547.44;;;3.09;80.09
30618;BME280;17384;51.214;9.202;2022-12-07T09:29:25;98542.19;;;3.24;80.47
30618;BME280;17384;51.214;9.202;2022-12-07T09:31:52;98548.94;;;3.12;81.04
30618;BME280;17384;51.214;9.202;2022-12-07T09:34:17;98544.81;;;3.32;80.79
30618;BME280;17384;51.214;9.202;2022-12-07T09:36:43;98550.34;;;4.07;79.91
30618;BME280;17384;51.214;9.202;2022-12-07T09:39:09;98553.88;;;5.04;76.93
30618;BME280;17384;51.214;9.202;2022-12-07T09:41:38;98550.97;;;5.20;74.18
30618;BME280;17384;51.214;9.202;2022-12-07T09:44:09;98543.88;;;6.06;71.57
30618;BME280;17384;51.214;9.202;2022-12-07T09:46:37;98548.44;;;6.27;69.89
30618;BME280;17384;51.214;9.202;2022-12-07T09:49:04;98548.97;;;6.16;69.32
30618;BME280;17384;51.214;9.202;2022-12-07T09:51:31;98554.81;;;6.19;70.77
30618;BME280;17384;51.214;9.202;2022-12-07T09:53:57;98553.94;;;6.40;71.60
30618;BME280;17384;51.214;9.202;2022-12-07T09:56:24;98540.13;;;6.77;68.94
30618;BME280;17384;51.214;9.202;2022-12-07T09:58:55;98547.56;;;6.48;68.88
30618;BME280;17384;51.214;9.202;2022-12-07T10:01:22;98553.88;;;6.33;68.78
30618;BME280;17384;51.214;9.202;2022-12-07T10:03:53;98533.47;;;5.82;70.01
30618;BME280;17384;51.214;9.202;2022-12-07T10:06:20;98540.56;;;5.47;71.68
30618;BME280;17384;51.214;9.202;2022-12-07T10:08:46;98540.00;;;6.36;70.21
30618;BME280;17384;51.214;9.202;2022-12-07T10:11:11;98538.72;;;6.88;69.50
30618;BME280;17384;51.214;9.202;2022-12-07T10:13:45;98539.00;;;7.47;67.78
30618;BME280;17384;51.214;9.202;2022-12-07T10:18:49;98536.28;;;8.68;63.57
30618;BME280;17384;51.214;9.202;2022-12-07T10:21:17;98512.97;;;8.67;60.34
30618;BME280;17384;51.214;9.202;2022-12-07T10:24:13;98531.50;;;8.57;61.64
30618;BME280;17384;51.214;9.202;2022-12-07T10:26:52;98512.28;;;7.72;63.74
30618;BME280;17384;51.214;9.202;2022-12-07T10:29:37;98525.78;;;7.72;63.60
30618;BME280;17384;51.214;9.202;2022-12-07T10:32:05;98526.75;;;7.45;64.58
30618;BME280;17384;51.214;9.202;2022-12-07T10:34:34;98517.47;;;6.72;66.62
30618;BME280;17384;51.214;9.202;2022-12-07T10:39:49;98526.41;;;5.95;69.49
30618;BME280;17384;51.214;9.202;2022-12-07T10:44:46;98507.16;;;5.20;70.56
30618;BME280;17384;51.214;9.202;2022-12-07T10:47:18;98521.91;;;4.94;72.68
30618;BME280;17384;51.214;9.202;2022-12-07T10:58:39;98519.28;;;3.90;75.99
30618;BME280;17384;51.214;9.202;2022-12-07T11:01:49;98519.94;;;3.46;78.08
30618;BME280;17384;51.214;9.202;2022-12-07T11:10:11;98514.41;;;2.78;81.25
30618;BME280;17384;51.214;9.202;2022-12-07T11:18:03;98494.88;;;2.69;81.16
30618;BME280;17384;51.214;9.202;2022-12-07T11:28:59;98480.47;;;3.32;80.00
30618;BME280;17384;51.214;9.202;2022-12-07T11:34:41;98475.88;;;4.53;77.23
30618;BME280;17384;51.214;9.202;2022-12-07T11:37:18;98476.72;;;4.54;75.61
30618;BME280;17384;51.214;9.202;2022-12-07T11:39:50;98464.56;;;4.28;75.78
30618;BME280;17384;51.214;9.202;2022-12-07T11:42:40;98465.13;;;4.38;76.37
30618;BME280;17384;51.214;9.202;2022-12-07T11:45:29;98474.13;;;4.31;76.71
30618;BME280;17384;51.214;9.202;2022-12-07T11:50:42;98464.56;;;4.43;76.59
30618;BME280;17384;51.214;9.202;2022-12-07T12:04:49;98472.34;;;3.86;77.76
30618;BME280;17384;51.214;9.202;2022-12-07T12:07:07;98465.81;;;3.65;78.58
30618;BME280;17384;51.214;9.202;2022-12-07T12:10:04;98454.41;;;3.49;77.94
30618;BME280;17384;51.214;9.202;2022-12-07T12:20:31;98445.31;;;3.72;79.02
30618;BME280;17384;51.214;9.202;2022-12-07T12:23:13;98440.91;;;3.80;79.31
30618;BME280;17384;51.214;9.202;2022-12-07T12:25:55;98433.09;;;3.85;79.27
30618;BME280;17384;51.214;9.202;2022-12-07T12:28:38;98437.63;;;3.69;79.66
30618;BME280;17384;51.214;9.202;2022-12-07T12:31:17;98440.66;;;3.66;79.30
30618;BME280;17384;51.214;9.202;2022-12-07T12:34:00;98449.50;;;3.52;80.54
30618;BME280;17384;51.214;9.202;2022-12-07T12:36:43;98443.34;;;3.66;80.39
30618;BME280;17384;51.214;9.202;2022-12-07T12:39:17;98437.44;;;3.71;79.70
30618;BME280;17384;51.214;9.202;2022-12-07T12:46:53;98432.44;;;3.68;79.98
30618;BME280;17384;51.214;9.202;2022-12-07T12:51:49;98428.69;;;3.92;79.11
30618;BME280;17384;51.214;9.202;2022-12-07T12:59:36;98430.75;;;4.04;78.98
30618;BME280;17384;51.214;9.202;2022-12-07T13:02:29;98424.81;;;3.94;76.75
30618;BME280;17384;51.214;9.202;2022-12-07T13:20:52;98417.88;;;3.25;78.16
30618;BME280;17384;51.214;9.202;2022-12-07T13:31:58;98406.53;;;3.15;78.94
30618;BME280;17384;51.214;9.202;2022-12-07T13:34:40;98400.47;;;3.21;78.61
30618;BME280;17384;51.214;9.202;2022-12-07T13:37:14;98421.56;;;3.24;78.95
30618;BME280;17384;51.214;9.202;2022-12-07T13:39:50;98425.34;;;3.29;78.74
30618;BME280;17384;51.214;9.202;2022-12-07T13:42:26;98415.06;;;3.18;78.22
30618;BME280;17384;51.214;9.202;2022-12-07T13:44:53;98419.28;;;3.13;79.11
30618;BME280;17384;51.214;9.202;2022-12-07T13:47:46;98414.44;;;3.08;79.45
30618;BME280;17384;51.214;9.202;2022-12-07T13:50:31;98417.56;;;2.97;79.51
30618;BME280;17384;51.214;9.202;2022-12-07T13:53:01;98402.06;;;3.07;79.56
30618;BME280;17384;51.214;9.202;2022-12-07T13:55:28;98405.72;;;3.14;78.88
30618;BME280;17384;51.214;9.202;2022-12-07T13:57:55;98409.75;;;3.10;79.40
30618;BME280;17384;51.214;9.202;2022-12-07T14:00:26;98399.56;;;3.05;79.63
30618;BME280;17384;51.214;9.202;2022-12-07T14:05:41;98399.38;;;3.07;79.29
30618;BME280;17384;51.214;9.202;2022-12-07T14:10:39;98403.25;;;3.04;80.19
30618;BME280;17384;51.214;9.202;2022-12-07T14:13:32;98412.69;;;3.00;80.63
30618;BME280;17384;51.214;9.202;2022-12-07T14:16:18;98394.16;;;2.91;81.15
30618;BME280;17384;51.214;9.202;2022-12-07T14:18:47;98400.38;;;2.83;81.62
30618;BME280;17384;51.214;9.202;2022-12-07T14:23:39;98418.22;;;2.68;81.89
30618;BME280;17384;51.214;9.202;2022-12-07T14:26:15;98398.72;;;2.82;81.54
30618;BME280;17384;51.214;9.202;2022-12-07T14:28:42;98393.19;;;3.29;80.51
30618;BME280;17384;51.214;9.202;2022-12-07T14:31:20;98378.50;;;3.63;77.48
30618;BME280;17384;51.214;9.202;2022-12-07T14:33:46;98376.16;;;3.83;76.66
30618;BME280;17384;51.214;9.202;2022-12-07T14:36:13;98378.06;;;3.74;76.30
30618;BME280;17384;51.214;9.202;2022-12-07T14:38:39;98386.44;;;3.56;76.53
30618;BME280;17384;51.214;9.202;2022-12-07T14:41:12;98385.16;;;3.52;77.00
30618;BME280;17384;51.214;9.202;2022-12-07T14:43:58;98374.31;;;3.46;77.21
30618;BME280;17384;51.214;9.202;2022-12-07T14:46:24;98373.22;;;3.32;77.81
30618;BME280;17384;51.214;9.202;2022-12-07T14:48:49;98385.72;;;3.25;78.30
30618;BME280;17384;51.214;9.202;2022-12-07T14:51:15;98380.63;;;2.84;79.39
30618;BME280;17384;51.214;9.202;2022-12-07T14:53:50;98364.75;;;2.75;80.22
30618;BME280;17384;51.214;9.202;2022-12-07T14:56:16;98368.59;;;2.80;79.99
30618;BME280;17384;51.214;9.202;2022-12-07T14:58:41;98373.44;;;2.77;79.98
30618;BME280;17384;51.214;9.202;2022-12-07T15:01:07;98368.34;;;2.67;79.95
30618;BME280;17384;51.214;9.202;2022-12-07T15:03:35;98376.41;;;2.59;80.68
30618;BME280;17384;51.214;9.202;2022-12-07T15:06:04;98356.34;;;2.55;80.95
30618;BME280;17384;51.214;9.202;2022-12-07T15:08:30;98370.16;;;2.44;81.24
30618;BME280;17384;51.214;9.202;2022-12-07T15:10:55;98365.81;;;2.34;81.98
30618;BME280;17384;51.214;9.202;2022-12-07T15:13:21;98364.53;;;2.22;82.33
30618;BME280;17384;51.214;9.202;2022-12-07T15:16:10;98366.84;;;2.25;82.45
30618;BME280;17384;51.214;9.202;2022-12-07T15:18:36;98367.75;;;2.10;82.91
30618;BME280;17384;51.214;9.202;2022-12-07T15:21:02;98369.44;;;2.11;83.31
30618;BME280;17384;51.214;9.202;2022-12-07T15:23:27;98354.09;;;1.96;83.24
30618;BME280;17384;51.214;9.202;2022-12-07T15:25:53;98354.91;;;1.97;84.01
30618;BME280;17384;51.214;9.202;2022-12-07T15:28:18;98351.25;;;1.98;83.83
30618;BME280;17384;51.214;9.202;2022-12-07T15:30:44;98364.94;;;2.03;83.90
30618;BME280;17384;51.214;9.202;2022-12-07T15:33:11;98362.59;;;2.00;83.97
30618;BME280;17384;51.214;9.202;2022-12-07T15:35:42;98362.84;;;1.82;84.29